Latest Weather Observations for Kuitpo

IDS60801

Issued at 1:31 pm CST Saturday 4 July 2015 (issued every 30 minutes, with the page automatically refreshed every 10 minutes)

About weather observations | Map of weather stations | Latest weather observations for SA | Other Formats
Station Details ID: 023887 Name: KUITPO FOREST RESERVE Lat: -35.17 Lon: 138.68 Height: 365.0 m
Data from the previous 72 hours. | See also: Recent months at Kuitpo
Date/Time
CST
Temp
°C
App
Temp
°C
Dew
Point
Rel
Hum
%
Delta-T
°C
Wind Press
QNH
hPa
Press
MSL
hPa
Rain
since 9 am
mm
Dir
 
Spd
km/h
Gust
km/h
Spd
kts
Gust
kts
04/01:30pm 13.2 10.0 6.8 65 3.1 NW 13 20 7 11 1020.8 1021.2 0.0
04/01:00pm 13.0 9.9 7.2 68 2.9 WNW 13 19 7 10 1021.2 1021.6 0.0
04/12:30pm 12.5 9.3 7.0 69 2.7 WNW 13 19 7 10 1021.6 1022.0 0.0
04/12:00pm 11.8 8.1 6.5 70 2.6 WNW 15 20 8 11 1022.1 1022.4 0.0
04/11:30am 11.8 9.0 7.1 73 2.3 WNW 11 17 6 9 1022.4 1022.7 0.0
04/11:00am 11.8 8.9 6.7 71 2.5 WNW 11 17 6 9 1022.7 1023.0 0.0
04/10:30am 12.1 9.3 7.0 71 2.5 WNW 11 19 6 10 1022.8 1023.1 0.0
04/10:00am 10.9 8.0 6.5 74 2.1 NNW 11 17 6 9 1022.9 1023.2 0.0
04/09:30am 10.4 7.8 6.0 74 2.1 NNW 9 17 5 9 1022.9 1023.2 0.0
04/09:00am 9.0 6.4 6.3 83 1.3 N 9 13 5 7 1022.8 1023.1 0.0
04/08:30am 8.7 6.5 6.0 83 1.3 NNW 7 13 4 7 1022.7 1023.0 0.0
04/08:00am 7.4 5.1 5.5 88 0.9 N 7 9 4 5 1022.6 1022.9 0.0
04/07:30am 7.4 5.1 5.5 88 0.9 N 7 11 4 6 1022.5 1022.8 0.0
04/07:00am 7.7 5.0 5.8 88 0.9 NNW 9 11 5 6 1022.3 1022.6 0.0
04/06:30am 7.7 5.4 5.8 88 0.9 W 7 9 4 5 1022.2 1022.5 0.0
04/06:00am 8.3 6.0 5.8 84 1.2 W 7 11 4 6 1021.8 1022.2 0.0
04/05:30am 8.9 7.9 5.8 81 1.4 CALM 0 0 0 0 1021.7 1022.1 0.0
04/05:00am 7.9 5.5 5.2 83 1.2 NNW 7 9 4 5 1021.6 1022.0 0.0
04/04:30am 8.9 6.6 5.8 81 1.4 W 7 9 4 5 1021.7 1022.1 0.0
04/04:00am 8.7 6.6 5.6 81 1.4 WNW 6 7 3 4 1021.8 1022.2 0.0
04/03:30am 7.9 5.4 5.0 82 1.3 NNW 7 9 4 5 1021.8 1022.2 0.0
04/03:00am 8.2 5.5 5.5 83 1.2 NW 9 11 5 6 1022.1 1022.4 0.0
04/02:30am 8.4 6.0 5.3 81 1.4 NW 7 9 4 5 1022.2 1022.5 0.0
04/02:00am 8.2 5.9 5.5 83 1.2 NW 7 9 4 5 1022.5 1022.8 0.0
04/01:30am 8.1 5.4 5.6 84 1.1 WNW 9 9 5 5 1022.6 1022.9 0.0
04/01:00am 7.6 5.1 4.7 82 1.3 NNW 7 9 4 5 1022.7 1023.0 0.0
04/12:30am 8.1 5.6 5.0 81 1.4 NNW 7 9 4 5 1022.9 1023.2 0.0
04/12:00am 8.2 5.7 5.0 80 1.4 N 7 7 4 4 1023.1 1023.5 0.0
 
Date/Time
CST
Temp
°C
App
Temp
°C
Dew
Point
Rel
Hum
%
Delta-T
°C
Wind Press
QNH
hPa
Press
MSL
hPa
Rain
since 9 am
mm
Dir
 
Spd
km/h
Gust
km/h
Spd
kts
Gust
kts
03/11:30pm 7.4 4.8 4.4 81 1.3 N 7 7 4 4 1023.3 1023.7 0.0
03/11:00pm 8.3 5.6 3.9 74 1.9 WNW 7 9 4 5 1023.7 1024.1 0.0
03/10:30pm 8.3 5.6 3.9 74 1.9 WNW 7 11 4 6 1023.7 1024.1 0.0
03/10:00pm 8.2 5.5 3.9 74 1.9 NW 7 11 4 6 1023.9 1024.3 0.0
03/09:30pm 8.3 5.2 3.8 73 2.0 WNW 9 11 5 6 1024.1 1024.5 0.0
03/09:00pm 7.9 5.2 3.9 76 1.8 NNW 7 9 4 5 1024.2 1024.6 0.0
03/08:30pm 7.6 5.3 4.7 82 1.3 N 6 6 3 3 1024.2 1024.6 0.0
03/08:00pm 7.5 6.4 5.0 84 1.1 CALM 0 0 0 0 1024.1 1024.5 0.0
03/07:30pm 7.7 5.2 4.7 81 1.3 NW 7 9 4 5 1024.3 1024.7 0.0
03/07:00pm 7.7 5.3 5.2 84 1.1 WNW 7 9 4 5 1024.3 1024.7 0.0
03/06:30pm 7.8 5.4 5.1 83 1.2 NW 7 9 4 5 1024.0 1024.4 0.0
03/06:00pm 7.9 5.4 5.0 82 1.3 NW 7 9 4 5 1024.2 1024.6 0.0
03/05:30pm 7.9 5.1 5.0 82 1.3 WNW 9 11 5 6 1024.3 1024.7 0.0
03/05:00pm 8.2 5.9 5.0 80 1.5 W 6 9 3 5 1024.3 1024.7 0.0
03/04:30pm 8.6 5.8 5.0 78 1.6 W 9 13 5 7 1024.4 1024.8 0.0
03/04:00pm 9.0 6.1 4.8 75 1.9 WNW 9 13 5 7 1024.6 1025.0 0.0
03/03:30pm 9.2 6.7 4.8 74 2.0 W 7 11 4 6 1024.3 1024.7 0.0
03/03:00pm 9.4 6.5 4.8 73 2.1 W 9 17 5 9 1024.5 1024.9 0.0
03/02:30pm 9.9 7.0 4.7 70 2.4 NW 9 13 5 7 1024.4 1024.8 0.0
03/02:00pm 10.7 7.7 4.2 64 3.0 NW 9 15 5 8 1024.3 1024.7 0.0
03/01:30pm 10.0 7.1 4.6 69 2.5 NNW 9 15 5 8 1024.9 1025.2 0.0
03/01:00pm 9.2 5.7 3.6 68 2.5 WNW 11 19 6 10 1025.3 1025.6 0.0
03/12:30pm 9.0 5.1 3.6 69 2.4 WNW 13 17 7 9 1025.8 1026.2 0.0
03/12:00pm 9.4 6.7 3.8 68 2.5 NW 7 11 4 6 1026.0 1026.4 0.0
03/11:30am 8.7 5.2 3.7 71 2.2 WNW 11 15 6 8 1026.9 1027.3 0.0
03/11:00am 8.7 7.4 4.1 73 2.1 CALM 0 0 0 0 1026.9 1027.3 0.0
03/10:30am 8.4 6.4 4.6 77 1.7 NNE 4 7 2 4 1027.1 1027.5 0.0
03/10:00am 7.9 5.2 3.6 74 1.9 NE 7 11 4 6 1027.2 1027.6 0.0
03/09:30am 8.0 4.9 3.5 73 2.0 NNE 9 13 5 7 1027.4 1027.8 0.0
03/09:00am 7.0 3.8 3.3 77 1.6 NE 9 13 5 7 1027.2 1027.6 0.0
03/08:30am 6.0 2.4 3.0 81 1.3 NE 11 15 6 8 1027.3 1027.7 0.0
03/08:00am 4.7 1.0 2.6 86 0.9 NE 11 15 6 8 1027.6 1028.0 0.0
03/07:30am 4.3 0.2 2.3 87 0.8 NE 13 19 7 10 1027.2 1027.6 0.0
03/07:00am 4.2 -0.3 2.4 88 0.7 ENE 15 20 8 11 1026.8 1027.2 0.0
03/06:30am 3.8 -0.7 2.0 88 0.7 NE 15 20 8 11 1026.6 1027.0 0.0
03/06:00am 4.0 -0.5 2.4 89 0.7 NE 15 20 8 11 1026.6 1027.0 0.0
03/05:30am 4.1 -0.4 2.1 87 0.8 NE 15 20 8 11 1026.7 1027.1 0.0
03/05:00am 4.4 -0.1 2.3 86 0.9 NE 15 19 8 10 1026.8 1027.2 0.0
03/04:30am 4.4 0.3 2.3 86 0.9 NE 13 19 7 10 1027.0 1027.4 0.0
03/04:00am 4.3 -0.2 2.3 87 0.8 NE 15 19 8 10 1027.1 1027.5 0.0
03/03:30am 4.4 0.4 2.6 88 0.7 NE 13 17 7 9 1027.4 1027.8 0.0
03/03:00am 4.6 0.6 2.9 89 0.7 NE 13 17 7 9 1027.6 1028.0 0.0
03/02:30am 4.7 0.8 3.2 90 0.6 NE 13 19 7 10 1027.8 1028.2 0.0
03/02:00am 4.6 0.3 3.4 92 0.5 NE 15 20 8 11 1027.4 1027.8 0.0
03/01:30am 4.6 0.7 3.4 92 0.5 NE 13 17 7 9 1027.8 1028.2 0.0
03/01:00am 5.2 0.6 3.9 91 0.6 NE 17 20 9 11 1027.6 1028.0 0.0
03/12:30am 6.0 1.9 4.2 88 0.8 ENE 15 19 8 10 1027.9 1028.3 0.0
03/12:00am 6.3 2.2 4.3 87 0.9 ENE 15 19 8 10 1028.3 1028.7 0.0
 
Date/Time
CST
Temp
°C
App
Temp
°C
Dew
Point
Rel
Hum
%
Delta-T
°C
Wind Press
QNH
hPa
Press
MSL
hPa
Rain
since 9 am
mm
Dir
 
Spd
km/h
Gust
km/h
Spd
kts
Gust
kts
02/11:30pm 6.5 2.4 4.3 86 1.0 E 15 19 8 10 1028.5 1028.9 0.0
02/11:00pm 6.5 2.4 4.3 86 1.0 E 15 19 8 10 1028.4 1028.8 0.0
02/10:30pm 6.6 2.5 4.3 85 1.0 E 15 19 8 10 1028.6 1029.0 0.0
02/10:00pm 6.7 3.0 4.2 84 1.1 E 13 17 7 9 1028.7 1029.1 0.0
02/09:30pm 6.8 3.0 3.9 82 1.3 ESE 13 15 7 8 1028.9 1029.3 0.0
02/09:00pm 7.1 3.0 4.1 81 1.3 ESE 15 17 8 9 1028.8 1029.2 0.0
02/08:30pm 7.0 3.3 4.3 83 1.2 ESE 13 17 7 9 1028.6 1029.0 0.0
02/08:00pm 7.1 3.0 4.2 82 1.3 ESE 15 17 8 9 1028.4 1028.8 0.0
02/07:30pm 7.0 2.9 4.3 83 1.2 ESE 15 17 8 9 1028.3 1028.7 0.0
02/07:00pm 7.3 3.2 4.6 83 1.2 ESE 15 20 8 11 1028.1 1028.5 0.0
02/06:30pm 7.3 3.3 4.8 84 1.1 ESE 15 20 8 11 1027.9 1028.3 0.0
02/06:00pm 7.7 3.7 4.7 81 1.3 SE 15 20 8 11 1027.8 1028.2 0.0
02/05:30pm 8.1 4.4 4.3 77 1.7 SE 13 17 7 9 1027.5 1027.9 0.0
02/05:00pm 8.9 5.6 4.5 74 2.0 SE 11 15 6 8 1027.4 1027.8 0.0
02/04:30pm 9.8 6.9 4.6 70 2.4 SSE 9 15 5 8 1027.4 1027.8 0.0
02/04:00pm 10.4 7.0 3.9 64 2.9 SSE 11 20 6 11 1027.5 1027.9 0.0
02/03:30pm 10.7 6.6 4.6 66 2.8 SE 15 24 8 13 1027.2 1027.6 0.0
02/03:00pm 11.5 8.4 5.6 67 2.8 S 11 17 6 9 1027.3 1027.7 0.0
02/02:30pm 10.9 7.3 5.0 67 2.7 S 13 22 7 12 1027.2 1027.6 0.0
02/02:00pm 12.0 9.1 6.3 68 2.7 SSE 11 20 6 11 1027.2 1027.6 0.0
02/01:30pm 12.7 9.8 6.5 66 3.0 S 11 20 6 11 1027.4 1027.8 0.0
02/01:00pm 11.8 9.2 5.9 67 2.8 SSW 9 15 5 8 1027.5 1027.9 0.0
02/12:30pm 11.5 8.1 6.0 69 2.6 SSW 13 19 7 10 1027.6 1028.0 0.0
02/12:00pm 11.7 8.8 6.6 71 2.5 SW 11 20 6 11 1027.8 1028.2 0.0
02/11:30am 11.3 8.3 7.6 78 1.8 S 13 20 7 11 1028.0 1028.4 0.0
02/11:00am 11.0 8.4 7.9 81 1.5 SSW 11 19 6 10 1028.2 1028.6 0.0
02/10:30am 10.9 8.0 8.0 82 1.4 SSW 13 22 7 12 1028.0 1028.4 0.0
02/10:00am 10.6 8.4 9.2 91 0.7 S 11 20 6 11 1027.6 1028.0 0.0
02/09:30am 10.4 8.7 9.8 96 0.3 S 9 13 5 7 1027.4 1027.8 0.0
02/09:00am 10.0 7.5 9.7 98 0.2 SSW 13 19 7 10 1027.1 1027.5 1.6
02/08:30am 10.0 8.3 9.7 98 0.2 SSW 9 13 5 7 1026.8 1027.2 1.6
02/08:00am 9.8 7.6 9.5 98 0.2 SW 11 15 6 8 1026.6 1027.0 1.6
02/07:30am 9.9 6.6 9.6 98 0.2 SW 17 30 9 16 1026.2 1026.6 1.4
02/07:00am 9.6 7.4 9.3 98 0.2 WSW 11 20 6 11 1025.4 1025.8 0.4
02/06:30am 9.4 6.7 9.1 98 0.1 WNW 13 22 7 12 1025.3 1025.6 0.0
02/06:00am 9.0 7.9 8.5 97 0.2 SW 4 9 2 5 1025.3 1025.6 0.0
02/05:30am 8.8 5.6 8.4 97 0.2 NW 15 22 8 12 1025.2 1025.5 0.0
02/05:00am 8.6 5.7 8.2 97 0.2 NW 13 24 7 13 1025.1 1025.4 0.0
02/04:30am 8.5 4.8 8.1 97 0.2 NNW 17 30 9 16 1024.9 1025.2 0.0
02/04:00am 8.5 4.8 7.9 96 0.3 NW 17 22 9 12 1024.9 1025.2 0.0
02/03:30am 8.5 5.2 7.9 96 0.3 NW 15 22 8 12 1025.0 1025.3 0.0
02/03:00am 8.4 4.7 7.8 96 0.3 NW 17 30 9 16 1024.9 1025.2 0.0
02/02:30am 8.4 5.0 7.6 95 0.4 NW 15 28 8 15 1025.1 1025.4 0.0
02/02:00am 8.5 4.3 7.6 94 0.4 NNW 19 24 10 13 1025.1 1025.4 0.0
02/01:30am 8.5 5.4 7.3 92 0.6 NW 13 22 7 12 1025.2 1025.5 0.0
02/01:00am 8.4 4.7 6.4 87 0.9 NW 15 22 8 12 1025.4 1025.8 0.0
02/12:30am 8.4 2.8 5.5 82 1.3 NW 24 35 13 19 1025.3 1025.6 0.0
02/12:00am 8.8 3.5 5.0 77 1.7 NW 22 35 12 19 1025.5 1025.9 0.0
 
Date/Time
CST
Temp
°C
App
Temp
°C
Dew
Point
Rel
Hum
%
Delta-T
°C
Wind Press
QNH
hPa
Press
MSL
hPa
Rain
since 9 am
mm
Dir
 
Spd
km/h
Gust
km/h
Spd
kts
Gust
kts
01/11:30pm 8.4 3.2 5.7 83 1.2 NW 22 33 12 18 1025.6 1026.0 0.0
01/11:00pm 8.5 3.9 6.5 87 0.9 NW 20 30 11 16 1025.9 1026.3 0.0
01/10:30pm 8.6 4.5 6.4 86 1.0 WNW 17 26 9 14 1026.0 1026.4 0.0
01/10:00pm 8.4 4.3 6.4 87 0.9 WNW 17 24 9 13 1026.0 1026.4 0.0
01/09:30pm 8.5 5.2 6.3 86 1.0 WNW 13 20 7 11 1026.0 1026.4 0.0
01/09:00pm 8.5 5.0 5.6 82 1.3 WNW 13 20 7 11 1026.1 1026.5 0.0
01/08:30pm 8.3 4.7 5.1 80 1.4 WNW 13 20 7 11 1025.9 1026.3 0.0
01/08:00pm 8.2 4.5 4.4 77 1.7 NW 13 20 7 11 1025.9 1026.3 0.0
01/07:30pm 8.5 3.9 3.9 73 2.0 NW 17 24 9 13 1025.9 1026.3 0.0
01/07:00pm 8.4 4.5 3.5 71 2.2 NW 13 20 7 11 1025.8 1026.2 0.0
01/06:30pm 8.4 4.4 2.6 67 2.5 NW 13 19 7 10 1025.5 1025.9 0.0
01/06:00pm 8.5 4.0 2.1 64 2.7 NW 15 20 8 11 1025.6 1026.0 0.0
01/05:30pm 8.5 4.3 1.6 62 2.9 NW 13 15 7 8 1025.5 1025.9 0.0
01/05:00pm 8.5 4.4 2.1 64 2.7 NW 13 17 7 9 1025.4 1025.8 0.0
01/04:30pm 8.8 5.1 2.4 64 2.7 NW 11 17 6 9 1025.6 1026.0 0.0
01/04:00pm 9.1 5.0 2.2 62 3.0 NW 13 19 7 10 1025.5 1025.9 0.0
01/03:30pm 9.7 5.3 2.8 62 3.0 WNW 15 24 8 13 1025.6 1026.0 0.0
01/03:00pm 9.8 5.4 2.6 61 3.1 WNW 15 22 8 12 1025.4 1025.8 0.0
01/02:30pm 9.3 4.5 2.4 62 3.0 WNW 17 24 9 13 1025.5 1025.9 0.0
01/02:00pm 9.6 5.2 2.7 62 3.0 WNW 15 22 8 12 1025.8 1026.2 0.0

Other Formats:

Comma delimited format used in spreadsheet applications
http://www.bom.gov.au/fwo/IDS60801/IDS60801.94683.axf

JavaScript Object Notation format (JSON) in row-major order
http://www.bom.gov.au/fwo/IDS60801/IDS60801.94683.json